Bayard, Nebraska
Current Conditions -  °F | °C
As of 11:53 AM on Tuesday 21 Oct 2014 (Local Time) from KBFF Reporting Station
Clear Clear  
Wind Chill: 69°   Ceiling: Unl
Heat Index: 69°   Visibility: 10mi
Dew Point: 43°   Wind: 5mph
Humidity: 39%   Direction: 130°SE
Pressure: 29.93"   Gusts: NA
Location:  41.75°N, 103.32°W
Report Text: KBFF 211753Z AUTO 13004KT 10SM CLR 21/06 A2993 RMK AO2 SLP100 T02060061 10206 20056 58014
Loading
Personal Weather Stations






























Interactive Weather Map
Tropical Storm Tracking
New forecast layout! Learn more

10-Day Weather Forecast

Advertisements
Track Severe Weather on mobile